sensor_id;sensor_type;location;lat;lon;timestamp;P1;durP1;ratioP1;P2;durP2;ratioP2
4963;SDS011;2497;47.410;9.740;2023-04-26T00:01:33;6.10;;;2.10;;
4963;SDS011;2497;47.410;9.740;2023-04-26T00:04:00;3.70;;;2.23;;
4963;SDS011;2497;47.410;9.740;2023-04-26T00:06:28;3.00;;;2.43;;
4963;SDS011;2497;47.410;9.740;2023-04-26T00:08:55;4.00;;;2.70;;
4963;SDS011;2497;47.410;9.740;2023-04-26T00:11:24;4.13;;;2.10;;
4963;SDS011;2497;47.410;9.740;2023-04-26T00:13:51;4.07;;;2.03;;
4963;SDS011;2497;47.410;9.740;2023-04-26T00:16:18;3.40;;;2.10;;
4963;SDS011;2497;47.410;9.740;2023-04-26T00:18:45;2.33;;;1.53;;
4963;SDS011;2497;47.410;9.740;2023-04-26T00:21:13;5.30;;;2.20;;
4963;SDS011;2497;47.410;9.740;2023-04-26T00:23:40;2.03;;;1.80;;
4963;SDS011;2497;47.410;9.740;2023-04-26T00:26:08;3.80;;;2.00;;
4963;SDS011;2497;47.410;9.740;2023-04-26T00:28:36;5.27;;;1.97;;
4963;SDS011;2497;47.410;9.740;2023-04-26T00:31:03;3.97;;;1.90;;
4963;SDS011;2497;47.410;9.740;2023-04-26T00:33:31;2.53;;;1.50;;
4963;SDS011;2497;47.410;9.740;2023-04-26T00:35:58;2.40;;;1.90;;
4963;SDS011;2497;47.410;9.740;2023-04-26T00:38:25;2.67;;;1.70;;
4963;SDS011;2497;47.410;9.740;2023-04-26T00:40:52;2.10;;;1.60;;
4963;SDS011;2497;47.410;9.740;2023-04-26T00:43:20;3.90;;;2.20;;
4963;SDS011;2497;47.410;9.740;2023-04-26T00:45:48;2.53;;;1.87;;
4963;SDS011;2497;47.410;9.740;2023-04-26T00:48:16;4.27;;;1.73;;
4963;SDS011;2497;47.410;9.740;2023-04-26T00:50:44;2.67;;;1.70;;
4963;SDS011;2497;47.410;9.740;2023-04-26T00:53:13;5.80;;;1.90;;
4963;SDS011;2497;47.410;9.740;2023-04-26T00:55:40;2.90;;;1.70;;
4963;SDS011;2497;47.410;9.740;2023-04-26T00:58:08;1.80;;;1.60;;
4963;SDS011;2497;47.410;9.740;2023-04-26T01:00:35;3.70;;;2.30;;
4963;SDS011;2497;47.410;9.740;2023-04-26T01:03:04;2.03;;;1.50;;
4963;SDS011;2497;47.410;9.740;2023-04-26T01:05:31;2.10;;;1.90;;
4963;SDS011;2497;47.410;9.740;2023-04-26T01:07:58;2.00;;;1.70;;
4963;SDS011;2497;47.410;9.740;2023-04-26T01:10:27;2.87;;;2.17;;
4963;SDS011;2497;47.410;9.740;2023-04-26T01:12:54;3.20;;;1.97;;
4963;SDS011;2497;47.410;9.740;2023-04-26T01:15:22;3.43;;;1.90;;
4963;SDS011;2497;47.410;9.740;2023-04-26T01:17:49;4.20;;;2.53;;
4963;SDS011;2497;47.410;9.740;2023-04-26T01:20:18;4.03;;;2.20;;
4963;SDS011;2497;47.410;9.740;2023-04-26T01:22:46;4.00;;;2.40;;
4963;SDS011;2497;47.410;9.740;2023-04-26T01:25:13;3.13;;;2.03;;
4963;SDS011;2497;47.410;9.740;2023-04-26T01:27:42;5.17;;;2.47;;
4963;SDS011;2497;47.410;9.740;2023-04-26T01:30:09;2.83;;;1.90;;
4963;SDS011;2497;47.410;9.740;2023-04-26T01:32:37;4.57;;;2.40;;
4963;SDS011;2497;47.410;9.740;2023-04-26T01:35:04;5.63;;;2.80;;
4963;SDS011;2497;47.410;9.740;2023-04-26T01:37:31;2.40;;;2.07;;
4963;SDS011;2497;47.410;9.740;2023-04-26T01:40:00;3.60;;;2.50;;
4963;SDS011;2497;47.410;9.740;2023-04-26T01:42:30;1.90;;;1.67;;
4963;SDS011;2497;47.410;9.740;2023-04-26T01:44:57;2.30;;;1.83;;
4963;SDS011;2497;47.410;9.740;2023-04-26T01:47:26;2.70;;;1.40;;
4963;SDS011;2497;47.410;9.740;2023-04-26T01:49:53;4.10;;;1.77;;
4963;SDS011;2497;47.410;9.740;2023-04-26T01:52:21;3.90;;;2.47;;
4963;SDS011;2497;47.410;9.740;2023-04-26T01:54:48;2.83;;;1.53;;
4963;SDS011;2497;47.410;9.740;2023-04-26T01:57:16;9.07;;;2.10;;
4963;SDS011;2497;47.410;9.740;2023-04-26T01:59:44;3.00;;;1.90;;
4963;SDS011;2497;47.410;9.740;2023-04-26T02:02:11;2.83;;;2.00;;
4963;SDS011;2497;47.410;9.740;2023-04-26T02:04:38;2.73;;;1.60;;
4963;SDS011;2497;47.410;9.740;2023-04-26T02:07:05;5.03;;;2.00;;
4963;SDS011;2497;47.410;9.740;2023-04-26T02:09:32;2.20;;;1.87;;
4963;SDS011;2497;47.410;9.740;2023-04-26T02:11:59;2.70;;;1.73;;
4963;SDS011;2497;47.410;9.740;2023-04-26T02:14:28;2.80;;;1.87;;
4963;SDS011;2497;47.410;9.740;2023-04-26T02:16:55;2.33;;;2.00;;
4963;SDS011;2497;47.410;9.740;2023-04-26T02:19:22;3.00;;;2.00;;
4963;SDS011;2497;47.410;9.740;2023-04-26T02:21:50;5.17;;;2.20;;
4963;SDS011;2497;47.410;9.740;2023-04-26T02:24:19;2.73;;;2.03;;
4963;SDS011;2497;47.410;9.740;2023-04-26T02:26:47;2.60;;;2.27;;
4963;SDS011;2497;47.410;9.740;2023-04-26T02:29:14;4.37;;;2.43;;
4963;SDS011;2497;47.410;9.740;2023-04-26T02:31:43;3.93;;;1.87;;
4963;SDS011;2497;47.410;9.740;2023-04-26T02:34:10;3.80;;;2.40;;
4963;SDS011;2497;47.410;9.740;2023-04-26T02:36:38;3.03;;;2.13;;
4963;SDS011;2497;47.410;9.740;2023-04-26T02:39:05;3.43;;;2.60;;
4963;SDS011;2497;47.410;9.740;2023-04-26T02:41:32;4.73;;;2.60;;
4963;SDS011;2497;47.410;9.740;2023-04-26T02:43:59;3.53;;;2.50;;
4963;SDS011;2497;47.410;9.740;2023-04-26T02:46:26;3.27;;;2.77;;
4963;SDS011;2497;47.410;9.740;2023-04-26T02:48:55;3.90;;;2.97;;
4963;SDS011;2497;47.410;9.740;2023-04-26T02:51:22;3.43;;;2.70;;
4963;SDS011;2497;47.410;9.740;2023-04-26T02:53:51;6.23;;;3.07;;
4963;SDS011;2497;47.410;9.740;2023-04-26T02:56:18;5.97;;;3.13;;
4963;SDS011;2497;47.410;9.740;2023-04-26T02:58:45;3.63;;;2.30;;
4963;SDS011;2497;47.410;9.740;2023-04-26T03:01:12;5.90;;;2.97;;
4963;SDS011;2497;47.410;9.740;2023-04-26T03:03:40;3.97;;;2.70;;
4963;SDS011;2497;47.410;9.740;2023-04-26T03:06:09;3.13;;;2.40;;
4963;SDS011;2497;47.410;9.740;2023-04-26T03:08:36;4.70;;;2.40;;
4963;SDS011;2497;47.410;9.740;2023-04-26T03:11:04;4.83;;;3.00;;
4963;SDS011;2497;47.410;9.740;2023-04-26T03:13:31;5.17;;;2.50;;
4963;SDS011;2497;47.410;9.740;2023-04-26T03:15:58;4.23;;;2.40;;
4963;SDS011;2497;47.410;9.740;2023-04-26T03:18:26;5.00;;;3.13;;
4963;SDS011;2497;47.410;9.740;2023-04-26T03:20:53;3.50;;;2.40;;
4963;SDS011;2497;47.410;9.740;2023-04-26T03:23:21;5.07;;;2.93;;
4963;SDS011;2497;47.410;9.740;2023-04-26T03:25:49;3.47;;;2.60;;
4963;SDS011;2497;47.410;9.740;2023-04-26T03:28:17;5.10;;;3.07;;
4963;SDS011;2497;47.410;9.740;2023-04-26T03:30:44;5.13;;;3.23;;
4963;SDS011;2497;47.410;9.740;2023-04-26T03:33:14;7.10;;;3.40;;
4963;SDS011;2497;47.410;9.740;2023-04-26T03:35:42;6.00;;;3.33;;
4963;SDS011;2497;47.410;9.740;2023-04-26T03:38:09;6.50;;;3.20;;
4963;SDS011;2497;47.410;9.740;2023-04-26T03:40:38;4.77;;;3.17;;
4963;SDS011;2497;47.410;9.740;2023-04-26T03:43:05;5.60;;;3.40;;
4963;SDS011;2497;47.410;9.740;2023-04-26T03:45:32;6.37;;;3.83;;
4963;SDS011;2497;47.410;9.740;2023-04-26T03:47:59;8.17;;;3.30;;
4963;SDS011;2497;47.410;9.740;2023-04-26T03:50:26;3.30;;;2.77;;
4963;SDS011;2497;47.410;9.740;2023-04-26T03:52:54;10.00;;;3.73;;
4963;SDS011;2497;47.410;9.740;2023-04-26T03:55:21;4.93;;;3.73;;
4963;SDS011;2497;47.410;9.740;2023-04-26T03:57:50;6.03;;;3.10;;
4963;SDS011;2497;47.410;9.740;2023-04-26T04:00:18;7.13;;;3.73;;
4963;SDS011;2497;47.410;9.740;2023-04-26T04:02:45;4.70;;;3.00;;
4963;SDS011;2497;47.410;9.740;2023-04-26T04:05:13;4.90;;;2.80;;
4963;SDS011;2497;47.410;9.740;2023-04-26T04:07:40;5.00;;;3.13;;
4963;SDS011;2497;47.410;9.740;2023-04-26T04:10:07;5.07;;;2.80;;
4963;SDS011;2497;47.410;9.740;2023-04-26T04:12:35;6.60;;;2.87;;
4963;SDS011;2497;47.410;9.740;2023-04-26T04:15:04;8.77;;;3.43;;
4963;SDS011;2497;47.410;9.740;2023-04-26T04:17:32;10.77;;;3.70;;
4963;SDS011;2497;47.410;9.740;2023-04-26T04:20:00;7.50;;;4.10;;
4963;SDS011;2497;47.410;9.740;2023-04-26T04:22:29;7.17;;;4.20;;
4963;SDS011;2497;47.410;9.740;2023-04-26T04:24:56;5.83;;;3.20;;
4963;SDS011;2497;47.410;9.740;2023-04-26T04:27:24;5.57;;;2.93;;
4963;SDS011;2497;47.410;9.740;2023-04-26T04:29:51;6.10;;;3.90;;
4963;SDS011;2497;47.410;9.740;2023-04-26T04:32:22;4.20;;;2.90;;
4963;SDS011;2497;47.410;9.740;2023-04-26T04:34:56;4.37;;;3.17;;
4963;SDS011;2497;47.410;9.740;2023-04-26T04:37:26;10.77;;;4.20;;
4963;SDS011;2497;47.410;9.740;2023-04-26T04:39:59;5.17;;;3.50;;
4963;SDS011;2497;47.410;9.740;2023-04-26T04:42:47;5.77;;;3.00;;
4963;SDS011;2497;47.410;9.740;2023-04-26T04:45:19;6.13;;;3.40;;
4963;SDS011;2497;47.410;9.740;2023-04-26T04:47:49;5.83;;;2.90;;
4963;SDS011;2497;47.410;9.740;2023-04-26T04:50:18;4.70;;;3.57;;
4963;SDS011;2497;47.410;9.740;2023-04-26T04:52:45;3.27;;;2.40;;
4963;SDS011;2497;47.410;9.740;2023-04-26T04:55:13;4.27;;;2.70;;
4963;SDS011;2497;47.410;9.740;2023-04-26T04:57:40;4.13;;;2.60;;
4963;SDS011;2497;47.410;9.740;2023-04-26T05:00:10;10.43;;;3.47;;
4963;SDS011;2497;47.410;9.740;2023-04-26T05:02:38;4.47;;;2.90;;
4963;SDS011;2497;47.410;9.740;2023-04-26T05:05:07;5.70;;;3.00;;
4963;SDS011;2497;47.410;9.740;2023-04-26T05:07:35;4.70;;;2.80;;
4963;SDS011;2497;47.410;9.740;2023-04-26T05:10:03;4.50;;;2.93;;
4963;SDS011;2497;47.410;9.740;2023-04-26T05:12:30;5.17;;;3.10;;
4963;SDS011;2497;47.410;9.740;2023-04-26T05:14:57;8.60;;;3.13;;
4963;SDS011;2497;47.410;9.740;2023-04-26T05:17:24;4.47;;;2.63;;
4963;SDS011;2497;47.410;9.740;2023-04-26T05:19:51;4.20;;;3.20;;
4963;SDS011;2497;47.410;9.740;2023-04-26T05:22:20;6.07;;;3.97;;
4963;SDS011;2497;47.410;9.740;2023-04-26T05:24:47;5.57;;;3.60;;
4963;SDS011;2497;47.410;9.740;2023-04-26T05:27:14;7.23;;;4.50;;
4963;SDS011;2497;47.410;9.740;2023-04-26T05:29:42;11.60;;;5.90;;
4963;SDS011;2497;47.410;9.740;2023-04-26T05:32:09;18.33;;;6.33;;
4963;SDS011;2497;47.410;9.740;2023-04-26T05:34:36;11.20;;;5.73;;
4963;SDS011;2497;47.410;9.740;2023-04-26T05:37:03;8.70;;;4.60;;
4963;SDS011;2497;47.410;9.740;2023-04-26T05:39:32;10.97;;;5.80;;
4963;SDS011;2497;47.410;9.740;2023-04-26T05:41:59;14.27;;;5.37;;
4963;SDS011;2497;47.410;9.740;2023-04-26T05:44:27;7.10;;;4.80;;
4963;SDS011;2497;47.410;9.740;2023-04-26T05:46:54;11.80;;;5.97;;
4963;SDS011;2497;47.410;9.740;2023-04-26T05:49:25;9.73;;;6.00;;
4963;SDS011;2497;47.410;9.740;2023-04-26T05:51:58;10.20;;;5.47;;
4963;SDS011;2497;47.410;9.740;2023-04-26T05:54:27;10.73;;;5.90;;
4963;SDS011;2497;47.410;9.740;2023-04-26T05:56:56;12.40;;;5.60;;
4963;SDS011;2497;47.410;9.740;2023-04-26T05:59:23;10.67;;;5.13;;
4963;SDS011;2497;47.410;9.740;2023-04-26T06:01:50;9.50;;;4.87;;
4963;SDS011;2497;47.410;9.740;2023-04-26T06:04:19;9.53;;;4.67;;
4963;SDS011;2497;47.410;9.740;2023-04-26T06:06:46;5.13;;;4.13;;
4963;SDS011;2497;47.410;9.740;2023-04-26T06:09:13;10.43;;;4.20;;
4963;SDS011;2497;47.410;9.740;2023-04-26T06:11:41;10.73;;;4.07;;
4963;SDS011;2497;47.410;9.740;2023-04-26T06:14:09;9.83;;;3.70;;
4963;SDS011;2497;47.410;9.740;2023-04-26T06:16:36;5.43;;;3.50;;
4963;SDS011;2497;47.410;9.740;2023-04-26T06:19:03;6.17;;;4.10;;
4963;SDS011;2497;47.410;9.740;2023-04-26T06:21:30;4.30;;;3.07;;
4963;SDS011;2497;47.410;9.740;2023-04-26T06:23:57;4.63;;;3.30;;
4963;SDS011;2497;47.410;9.740;2023-04-26T06:26:25;9.03;;;4.40;;
4963;SDS011;2497;47.410;9.740;2023-04-26T06:28:52;7.37;;;3.33;;
4963;SDS011;2497;47.410;9.740;2023-04-26T06:31:20;6.40;;;3.50;;
4963;SDS011;2497;47.410;9.740;2023-04-26T06:33:47;5.23;;;2.60;;
4963;SDS011;2497;47.410;9.740;2023-04-26T06:36:17;4.90;;;2.97;;
4963;SDS011;2497;47.410;9.740;2023-04-26T06:38:45;5.90;;;2.73;;
4963;SDS011;2497;47.410;9.740;2023-04-26T06:41:12;8.37;;;2.80;;
4963;SDS011;2497;47.410;9.740;2023-04-26T06:43:40;4.57;;;2.57;;
4963;SDS011;2497;47.410;9.740;2023-04-26T06:46:07;4.37;;;2.30;;
4963;SDS011;2497;47.410;9.740;2023-04-26T06:48:35;4.03;;;2.60;;
4963;SDS011;2497;47.410;9.740;2023-04-26T06:51:05;4.13;;;2.63;;
4963;SDS011;2497;47.410;9.740;2023-04-26T06:53:33;5.43;;;2.83;;
4963;SDS011;2497;47.410;9.740;2023-04-26T06:56:00;6.80;;;2.60;;
4963;SDS011;2497;47.410;9.740;2023-04-26T06:58:28;4.43;;;2.17;;
4963;SDS011;2497;47.410;9.740;2023-04-26T07:00:55;4.67;;;2.70;;
4963;SDS011;2497;47.410;9.740;2023-04-26T07:03:22;3.00;;;2.07;;
4963;SDS011;2497;47.410;9.740;2023-04-26T07:05:50;3.27;;;2.23;;
4963;SDS011;2497;47.410;9.740;2023-04-26T07:08:18;6.20;;;1.90;;
4963;SDS011;2497;47.410;9.740;2023-04-26T07:10:45;2.27;;;1.87;;
4963;SDS011;2497;47.410;9.740;2023-04-26T07:13:12;3.43;;;2.43;;
4963;SDS011;2497;47.410;9.740;2023-04-26T07:15:40;3.10;;;2.27;;
4963;SDS011;2497;47.410;9.740;2023-04-26T07:18:07;2.57;;;2.10;;
4963;SDS011;2497;47.410;9.740;2023-04-26T07:20:34;5.33;;;2.60;;
4963;SDS011;2497;47.410;9.740;2023-04-26T07:23:03;2.50;;;2.10;;
4963;SDS011;2497;47.410;9.740;2023-04-26T07:25:30;3.80;;;2.37;;
4963;SDS011;2497;47.410;9.740;2023-04-26T07:27:59;6.13;;;2.30;;
4963;SDS011;2497;47.410;9.740;2023-04-26T07:30:26;2.50;;;1.90;;
4963;SDS011;2497;47.410;9.740;2023-04-26T07:32:53;3.23;;;2.33;;
4963;SDS011;2497;47.410;9.740;2023-04-26T07:35:20;3.83;;;2.33;;
4963;SDS011;2497;47.410;9.740;2023-04-26T07:37:47;4.60;;;3.00;;
4963;SDS011;2497;47.410;9.740;2023-04-26T07:40:16;2.43;;;1.87;;
4963;SDS011;2497;47.410;9.740;2023-04-26T07:42:46;2.63;;;1.93;;
4963;SDS011;2497;47.410;9.740;2023-04-26T07:45:14;9.70;;;5.17;;
4963;SDS011;2497;47.410;9.740;2023-04-26T07:47:41;2.33;;;1.90;;
4963;SDS011;2497;47.410;9.740;2023-04-26T07:50:09;2.97;;;1.90;;
4963;SDS011;2497;47.410;9.740;2023-04-26T07:52:36;3.23;;;1.60;;
4963;SDS011;2497;47.410;9.740;2023-04-26T07:55:04;2.80;;;2.10;;
4963;SDS011;2497;47.410;9.740;2023-04-26T07:57:33;3.03;;;1.60;;
4963;SDS011;2497;47.410;9.740;2023-04-26T08:00:00;3.77;;;2.00;;
4963;SDS011;2497;47.410;9.740;2023-04-26T08:02:27;2.33;;;1.90;;
4963;SDS011;2497;47.410;9.740;2023-04-26T08:04:54;3.37;;;2.20;;
4963;SDS011;2497;47.410;9.740;2023-04-26T08:07:22;5.13;;;2.63;;
4963;SDS011;2497;47.410;9.740;2023-04-26T08:09:49;3.97;;;2.67;;
4963;SDS011;2497;47.410;9.740;2023-04-26T08:12:16;4.60;;;2.57;;
4963;SDS011;2497;47.410;9.740;2023-04-26T08:14:44;3.53;;;2.27;;
4963;SDS011;2497;47.410;9.740;2023-04-26T08:17:11;4.00;;;2.03;;
4963;SDS011;2497;47.410;9.740;2023-04-26T08:19:38;5.73;;;2.80;;
4963;SDS011;2497;47.410;9.740;2023-04-26T08:22:06;3.83;;;2.73;;
4963;SDS011;2497;47.410;9.740;2023-04-26T08:24:33;3.30;;;2.27;;
4963;SDS011;2497;47.410;9.740;2023-04-26T08:27:00;5.67;;;2.30;;
4963;SDS011;2497;47.410;9.740;2023-04-26T08:29:27;5.03;;;2.97;;
4963;SDS011;2497;47.410;9.740;2023-04-26T08:31:56;3.50;;;1.80;;
4963;SDS011;2497;47.410;9.740;2023-04-26T08:34:24;5.00;;;2.23;;
4963;SDS011;2497;47.410;9.740;2023-04-26T08:36:52;2.83;;;1.90;;
4963;SDS011;2497;47.410;9.740;2023-04-26T08:39:19;2.43;;;2.10;;
4963;SDS011;2497;47.410;9.740;2023-04-26T08:41:49;6.03;;;2.50;;
4963;SDS011;2497;47.410;9.740;2023-04-26T08:44:20;2.00;;;1.80;;
4963;SDS011;2497;47.410;9.740;2023-04-26T08:46:51;2.20;;;2.00;;
4963;SDS011;2497;47.410;9.740;2023-04-26T08:49:39;3.00;;;1.93;;
4963;SDS011;2497;47.410;9.740;2023-04-26T08:52:07;3.43;;;2.33;;
4963;SDS011;2497;47.410;9.740;2023-04-26T08:54:38;3.77;;;2.40;;
4963;SDS011;2497;47.410;9.740;2023-04-26T08:57:08;2.63;;;2.27;;
4963;SDS011;2497;47.410;9.740;2023-04-26T08:59:35;2.43;;;1.97;;
4963;SDS011;2497;47.410;9.740;2023-04-26T09:02:06;6.73;;;2.70;;
4963;SDS011;2497;47.410;9.740;2023-04-26T09:04:35;2.90;;;2.30;;
4963;SDS011;2497;47.410;9.740;2023-04-26T09:07:08;3.23;;;2.40;;
4963;SDS011;2497;47.410;9.740;2023-04-26T09:09:41;3.50;;;2.70;;
4963;SDS011;2497;47.410;9.740;2023-04-26T09:12:10;5.47;;;2.67;;
4963;SDS011;2497;47.410;9.740;2023-04-26T09:14:37;4.20;;;2.50;;
4963;SDS011;2497;47.410;9.740;2023-04-26T09:17:07;4.10;;;3.10;;
4963;SDS011;2497;47.410;9.740;2023-04-26T09:19:54;4.03;;;2.60;;
4963;SDS011;2497;47.410;9.740;2023-04-26T09:22:28;10.53;;;3.53;;
4963;SDS011;2497;47.410;9.740;2023-04-26T09:25:06;4.50;;;2.90;;
4963;SDS011;2497;47.410;9.740;2023-04-26T09:27:37;3.40;;;2.13;;
4963;SDS011;2497;47.410;9.740;2023-04-26T09:30:08;4.30;;;2.93;;
4963;SDS011;2497;47.410;9.740;2023-04-26T09:32:52;5.20;;;2.83;;
4963;SDS011;2497;47.410;9.740;2023-04-26T09:38:12;3.20;;;2.43;;
4963;SDS011;2497;47.410;9.740;2023-04-26T09:40:41;7.50;;;3.70;;
4963;SDS011;2497;47.410;9.740;2023-04-26T09:43:09;3.50;;;2.50;;
4963;SDS011;2497;47.410;9.740;2023-04-26T09:45:43;4.93;;;3.67;;
4963;SDS011;2497;47.410;9.740;2023-04-26T09:48:16;4.57;;;2.83;;
4963;SDS011;2497;47.410;9.740;2023-04-26T09:50:47;6.43;;;3.50;;
4963;SDS011;2497;47.410;9.740;2023-04-26T09:53:24;6.50;;;3.40;;
4963;SDS011;2497;47.410;9.740;2023-04-26T09:55:52;9.00;;;3.40;;
4963;SDS011;2497;47.410;9.740;2023-04-26T09:58:19;5.50;;;3.53;;
4963;SDS011;2497;47.410;9.740;2023-04-26T10:00:47;6.70;;;3.57;;
4963;SDS011;2497;47.410;9.740;2023-04-26T10:03:18;5.37;;;3.03;;
4963;SDS011;2497;47.410;9.740;2023-04-26T10:05:45;7.93;;;3.20;;
4963;SDS011;2497;47.410;9.740;2023-04-26T10:08:13;6.50;;;3.57;;
4963;SDS011;2497;47.410;9.740;2023-04-26T10:10:46;6.90;;;3.40;;
4963;SDS011;2497;47.410;9.740;2023-04-26T10:13:19;3.70;;;3.00;;
4963;SDS011;2497;47.410;9.740;2023-04-26T10:15:47;4.27;;;3.13;;
4963;SDS011;2497;47.410;9.740;2023-04-26T10:18:15;6.60;;;3.57;;
4963;SDS011;2497;47.410;9.740;2023-04-26T10:20:45;5.77;;;3.33;;
4963;SDS011;2497;47.410;9.740;2023-04-26T10:23:17;7.53;;;2.80;;
4963;SDS011;2497;47.410;9.740;2023-04-26T10:25:46;5.40;;;3.67;;
4963;SDS011;2497;47.410;9.740;2023-04-26T10:28:52;4.43;;;2.50;;
4963;SDS011;2497;47.410;9.740;2023-04-26T10:31:19;3.80;;;2.40;;
4963;SDS011;2497;47.410;9.740;2023-04-26T10:33:51;3.70;;;2.70;;
4963;SDS011;2497;47.410;9.740;2023-04-26T10:39:36;4.77;;;2.87;;
4963;SDS011;2497;47.410;9.740;2023-04-26T10:42:17;6.23;;;2.60;;
4963;SDS011;2497;47.410;9.740;2023-04-26T10:44:48;6.23;;;2.50;;
4963;SDS011;2497;47.410;9.740;2023-04-26T10:47:23;3.90;;;2.90;;
4963;SDS011;2497;47.410;9.740;2023-04-26T10:50:00;3.90;;;2.70;;
4963;SDS011;2497;47.410;9.740;2023-04-26T10:52:31;4.10;;;2.70;;
4963;SDS011;2497;47.410;9.740;2023-04-26T10:54:58;4.97;;;2.70;;
4963;SDS011;2497;47.410;9.740;2023-04-26T10:57:51;3.30;;;2.33;;
4963;SDS011;2497;47.410;9.740;2023-04-26T11:00:29;3.13;;;2.50;;
4963;SDS011;2497;47.410;9.740;2023-04-26T11:02:58;4.33;;;2.20;;
4963;SDS011;2497;47.410;9.740;2023-04-26T11:05:48;3.60;;;2.20;;
4963;SDS011;2497;47.410;9.740;2023-04-26T11:14:01;4.00;;;2.60;;
4963;SDS011;2497;47.410;9.740;2023-04-26T11:16:30;3.93;;;2.20;;
4963;SDS011;2497;47.410;9.740;2023-04-26T11:19:09;1.97;;;1.70;;
4963;SDS011;2497;47.410;9.740;2023-04-26T11:21:43;5.20;;;2.33;;
4963;SDS011;2497;47.410;9.740;2023-04-26T11:24:23;5.50;;;2.27;;
4963;SDS011;2497;47.410;9.740;2023-04-26T11:29:40;3.20;;;1.87;;
4963;SDS011;2497;47.410;9.740;2023-04-26T11:32:20;3.80;;;1.90;;
4963;SDS011;2497;47.410;9.740;2023-04-26T11:34:48;3.07;;;2.10;;
4963;SDS011;2497;47.410;9.740;2023-04-26T11:37:18;5.23;;;2.33;;
4963;SDS011;2497;47.410;9.740;2023-04-26T11:39:49;2.47;;;1.53;;
4963;SDS011;2497;47.410;9.740;2023-04-26T11:42:23;4.10;;;1.73;;
4963;SDS011;2497;47.410;9.740;2023-04-26T11:45:02;2.60;;;1.77;;
4963;SDS011;2497;47.410;9.740;2023-04-26T11:50:38;2.33;;;1.30;;
4963;SDS011;2497;47.410;9.740;2023-04-26T11:53:08;3.23;;;1.67;;
4963;SDS011;2497;47.410;9.740;2023-04-26T11:55:35;7.73;;;2.03;;
4963;SDS011;2497;47.410;9.740;2023-04-26T11:58:09;2.27;;;1.50;;
4963;SDS011;2497;47.410;9.740;2023-04-26T12:03:30;3.70;;;2.17;;
4963;SDS011;2497;47.410;9.740;2023-04-26T12:06:06;3.17;;;1.90;;
4963;SDS011;2497;47.410;9.740;2023-04-26T12:08:35;5.17;;;1.90;;
4963;SDS011;2497;47.410;9.740;2023-04-26T12:11:03;4.30;;;1.77;;
4963;SDS011;2497;47.410;9.740;2023-04-26T12:13:30;3.30;;;1.60;;
4963;SDS011;2497;47.410;9.740;2023-04-26T12:16:00;4.17;;;2.00;;
4963;SDS011;2497;47.410;9.740;2023-04-26T12:18:34;2.47;;;1.80;;
4963;SDS011;2497;47.410;9.740;2023-04-26T12:21:04;2.50;;;2.00;;
4963;SDS011;2497;47.410;9.740;2023-04-26T12:23:35;3.23;;;2.00;;
4963;SDS011;2497;47.410;9.740;2023-04-26T12:26:12;6.20;;;1.83;;
4963;SDS011;2497;47.410;9.740;2023-04-26T12:29:09;3.83;;;2.00;;
4963;SDS011;2497;47.410;9.740;2023-04-26T12:31:46;3.50;;;2.43;;
4963;SDS011;2497;47.410;9.740;2023-04-26T12:34:17;4.50;;;2.43;;
4963;SDS011;2497;47.410;9.740;2023-04-26T12:36:45;4.67;;;1.83;;
4963;SDS011;2497;47.410;9.740;2023-04-26T12:39:12;4.20;;;2.23;;
4963;SDS011;2497;47.410;9.740;2023-04-26T12:41:41;3.10;;;2.40;;
4963;SDS011;2497;47.410;9.740;2023-04-26T12:44:19;3.60;;;1.90;;
4963;SDS011;2497;47.410;9.740;2023-04-26T12:47:00;3.70;;;1.80;;
4963;SDS011;2497;47.410;9.740;2023-04-26T12:49:30;4.37;;;2.60;;
4963;SDS011;2497;47.410;9.740;2023-04-26T12:51:57;3.23;;;2.10;;
4963;SDS011;2497;47.410;9.740;2023-04-26T12:54:24;3.97;;;2.00;;
4963;SDS011;2497;47.410;9.740;2023-04-26T12:56:54;2.70;;;2.20;;
4963;SDS011;2497;47.410;9.740;2023-04-26T12:59:24;2.87;;;1.77;;
4963;SDS011;2497;47.410;9.740;2023-04-26T13:01:54;4.03;;;2.17;;
4963;SDS011;2497;47.410;9.740;2023-04-26T13:04:31;4.10;;;2.13;;
4963;SDS011;2497;47.410;9.740;2023-04-26T13:06:59;3.37;;;1.80;;
4963;SDS011;2497;47.410;9.740;2023-04-26T13:09:39;4.27;;;2.60;;
4963;SDS011;2497;47.410;9.740;2023-04-26T13:12:08;2.27;;;1.70;;
4963;SDS011;2497;47.410;9.740;2023-04-26T13:14:35;3.33;;;1.90;;
4963;SDS011;2497;47.410;9.740;2023-04-26T13:17:03;2.93;;;2.20;;
4963;SDS011;2497;47.410;9.740;2023-04-26T13:19:34;2.53;;;2.07;;
4963;SDS011;2497;47.410;9.740;2023-04-26T13:22:01;2.60;;;1.87;;
4963;SDS011;2497;47.410;9.740;2023-04-26T13:24:29;4.40;;;2.33;;
4963;SDS011;2497;47.410;9.740;2023-04-26T13:26:57;2.90;;;2.07;;
4963;SDS011;2497;47.410;9.740;2023-04-26T13:29:40;6.20;;;2.27;;
4963;SDS011;2497;47.410;9.740;2023-04-26T13:32:07;2.90;;;1.90;;
4963;SDS011;2497;47.410;9.740;2023-04-26T13:34:41;2.57;;;1.73;;
4963;SDS011;2497;47.410;9.740;2023-04-26T13:39:49;5.10;;;2.27;;
4963;SDS011;2497;47.410;9.740;2023-04-26T13:42:19;6.23;;;2.37;;
4963;SDS011;2497;47.410;9.740;2023-04-26T13:44:48;2.90;;;1.90;;
4963;SDS011;2497;47.410;9.740;2023-04-26T13:47:15;2.80;;;2.07;;
4963;SDS011;2497;47.410;9.740;2023-04-26T13:49:44;4.50;;;2.30;;
4963;SDS011;2497;47.410;9.740;2023-04-26T13:52:26;3.83;;;2.07;;
4963;SDS011;2497;47.410;9.740;2023-04-26T13:54:54;4.90;;;1.90;;
4963;SDS011;2497;47.410;9.740;2023-04-26T13:57:21;3.27;;;2.13;;
4963;SDS011;2497;47.410;9.740;2023-04-26T13:59:51;6.13;;;2.10;;
4963;SDS011;2497;47.410;9.740;2023-04-26T14:05:08;6.43;;;2.37;;
4963;SDS011;2497;47.410;9.740;2023-04-26T14:07:35;5.70;;;2.10;;
4963;SDS011;2497;47.410;9.740;2023-04-26T14:10:03;5.67;;;2.03;;
4963;SDS011;2497;47.410;9.740;2023-04-26T14:12:33;5.43;;;2.33;;
4963;SDS011;2497;47.410;9.740;2023-04-26T14:15:00;3.97;;;2.10;;
4963;SDS011;2497;47.410;9.740;2023-04-26T14:17:31;4.83;;;2.10;;
4963;SDS011;2497;47.410;9.740;2023-04-26T14:19:58;5.60;;;1.73;;
4963;SDS011;2497;47.410;9.740;2023-04-26T14:22:27;6.97;;;2.43;;
4963;SDS011;2497;47.410;9.740;2023-04-26T14:24:54;4.60;;;2.20;;
4963;SDS011;2497;47.410;9.740;2023-04-26T14:27:21;6.07;;;2.30;;
4963;SDS011;2497;47.410;9.740;2023-04-26T14:29:49;6.80;;;2.03;;
4963;SDS011;2497;47.410;9.740;2023-04-26T14:32:16;4.73;;;2.37;;
4963;SDS011;2497;47.410;9.740;2023-04-26T14:34:43;5.10;;;2.40;;
4963;SDS011;2497;47.410;9.740;2023-04-26T14:37:10;3.60;;;2.23;;
4963;SDS011;2497;47.410;9.740;2023-04-26T14:39:39;6.37;;;2.47;;
4963;SDS011;2497;47.410;9.740;2023-04-26T14:42:08;2.90;;;2.00;;
4963;SDS011;2497;47.410;9.740;2023-04-26T14:44:35;4.20;;;2.33;;
4963;SDS011;2497;47.410;9.740;2023-04-26T14:47:02;5.53;;;2.43;;
4963;SDS011;2497;47.410;9.740;2023-04-26T14:49:29;4.57;;;2.67;;
4963;SDS011;2497;47.410;9.740;2023-04-26T14:51:57;3.30;;;2.17;;
4963;SDS011;2497;47.410;9.740;2023-04-26T14:54:29;13.10;;;2.60;;
4963;SDS011;2497;47.410;9.740;2023-04-26T14:56:57;4.33;;;2.40;;
4963;SDS011;2497;47.410;9.740;2023-04-26T14:59:25;6.00;;;2.70;;
4963;SDS011;2497;47.410;9.740;2023-04-26T15:01:52;3.20;;;2.00;;
4963;SDS011;2497;47.410;9.740;2023-04-26T15:04:22;4.27;;;2.20;;
4963;SDS011;2497;47.410;9.740;2023-04-26T15:06:57;3.80;;;2.33;;
4963;SDS011;2497;47.410;9.740;2023-04-26T15:09:24;4.13;;;2.60;;
4963;SDS011;2497;47.410;9.740;2023-04-26T15:11:51;4.60;;;2.73;;
4963;SDS011;2497;47.410;9.740;2023-04-26T15:14:23;9.30;;;2.23;;
4963;SDS011;2497;47.410;9.740;2023-04-26T15:16:54;6.40;;;2.90;;
4963;SDS011;2497;47.410;9.740;2023-04-26T15:19:21;6.13;;;2.30;;
4963;SDS011;2497;47.410;9.740;2023-04-26T15:21:48;6.67;;;2.60;;
4963;SDS011;2497;47.410;9.740;2023-04-26T15:24:16;4.67;;;2.97;;
4963;SDS011;2497;47.410;9.740;2023-04-26T15:26:43;6.13;;;2.70;;
4963;SDS011;2497;47.410;9.740;2023-04-26T15:29:10;3.47;;;2.33;;
4963;SDS011;2497;47.410;9.740;2023-04-26T15:31:39;2.90;;;2.10;;
4963;SDS011;2497;47.410;9.740;2023-04-26T15:34:06;4.30;;;2.30;;
4963;SDS011;2497;47.410;9.740;2023-04-26T15:36:33;4.60;;;2.90;;
4963;SDS011;2497;47.410;9.740;2023-04-26T15:39:03;2.43;;;1.97;;
4963;SDS011;2497;47.410;9.740;2023-04-26T15:41:30;6.93;;;2.90;;
4963;SDS011;2497;47.410;9.740;2023-04-26T15:43:57;8.03;;;2.80;;
4963;SDS011;2497;47.410;9.740;2023-04-26T15:46:24;5.10;;;2.63;;
4963;SDS011;2497;47.410;9.740;2023-04-26T15:48:53;4.47;;;2.60;;
4963;SDS011;2497;47.410;9.740;2023-04-26T15:51:20;6.60;;;3.00;;
4963;SDS011;2497;47.410;9.740;2023-04-26T15:53:48;3.20;;;2.20;;